createdAt,value
2022-08-28T00:00:39.767Z,6.05
2022-08-28T00:03:07.023Z,3.50
2022-08-28T00:05:34.191Z,3.33
2022-08-28T00:08:01.173Z,2.53
2022-08-28T00:10:28.247Z,3.00
2022-08-28T00:12:57.441Z,2.30
2022-08-28T00:15:29.426Z,3.42
2022-08-28T00:17:56.664Z,3.22
2022-08-28T00:20:25.433Z,3.20
2022-08-28T00:22:52.753Z,8.95
2022-08-28T00:25:24.215Z,3.58
2022-08-28T00:27:57.445Z,4.90
2022-08-28T00:30:29.943Z,2.35
2022-08-28T00:33:00.324Z,2.58
2022-08-28T00:35:27.700Z,5.28
2022-08-28T00:37:55.009Z,3.10
2022-08-28T00:40:28.941Z,2.10
2022-08-28T00:43:02.894Z,3.42
2022-08-28T00:45:33.108Z,6.88
2022-08-28T00:48:03.136Z,2.22
2022-08-28T00:51:00.339Z,6.88
2022-08-28T00:53:30.163Z,6.07
2022-08-28T00:56:04.217Z,5.43
2022-08-28T00:58:36.841Z,2.50
2022-08-28T01:01:04.495Z,2.58
2022-08-28T01:03:31.589Z,2.80
2022-08-28T01:05:58.742Z,2.35
2022-08-28T01:08:25.578Z,3.13
2022-08-28T01:13:26.917Z,2.95
2022-08-28T01:15:54.902Z,2.53
2022-08-28T01:18:22.733Z,2.70
2022-08-28T01:21:06.266Z,3.13
2022-08-28T01:23:51.618Z,2.15
2022-08-28T01:26:18.717Z,3.88
2022-08-28T01:28:45.641Z,5.25
2022-08-28T01:31:14.516Z,2.50
2022-08-28T01:33:43.441Z,4.03
2022-08-28T01:36:12.354Z,6.30
2022-08-28T01:38:40.976Z,5.45
2022-08-28T01:41:07.874Z,5.13
2022-08-28T01:43:34.856Z,3.55
2022-08-28T01:46:05.853Z,6.25
2022-08-28T01:48:37.012Z,2.20
2022-08-28T01:51:05.428Z,3.55
2022-08-28T01:53:33.185Z,2.92
2022-08-28T01:56:02.264Z,5.47
2022-08-28T01:58:33.836Z,3.50
2022-08-28T02:01:02.948Z,4.90
2022-08-28T02:03:31.002Z,6.28
2022-08-28T02:05:57.827Z,2.78
2022-08-28T02:08:24.640Z,5.65
2022-08-28T02:10:52.958Z,3.90
2022-08-28T02:13:19.735Z,3.67
2022-08-28T02:15:46.763Z,6.32
2022-08-28T02:18:14.602Z,3.63
2022-08-28T02:20:42.933Z,2.35
2022-08-28T02:23:10.412Z,3.25
2022-08-28T02:25:37.288Z,3.25
2022-08-28T02:28:04.186Z,2.40
2022-08-28T02:30:31.090Z,4.43
2022-08-28T02:32:58.087Z,3.55
2022-08-28T02:35:25.260Z,4.30
2022-08-28T02:37:54.484Z,5.85
2022-08-28T02:40:26.027Z,6.47
2022-08-28T02:42:52.918Z,3.00
2022-08-28T02:45:20.955Z,4.53
2022-08-28T02:47:48.448Z,3.35
2022-08-28T02:50:18.003Z,3.90
2022-08-28T02:52:45.004Z,3.13
2022-08-28T02:55:13.516Z,3.47
2022-08-28T02:57:41.180Z,3.15
2022-08-28T03:00:13.284Z,4.55
2022-08-28T03:02:41.671Z,6.45
2022-08-28T03:05:10.419Z,3.38
2022-08-28T03:07:37.262Z,5.03
2022-08-28T03:10:05.329Z,4.97
2022-08-28T03:12:32.103Z,3.78
2022-08-28T03:14:58.918Z,3.30
2022-08-28T03:17:26.016Z,3.83
2022-08-28T03:19:52.979Z,4.55
2022-08-28T03:22:39.533Z,6.15
2022-08-28T03:25:07.244Z,5.45
2022-08-28T03:27:34.277Z,5.80
2022-08-28T03:30:02.645Z,4.57
2022-08-28T03:32:29.723Z,4.13
2022-08-28T03:34:56.498Z,10.05
2022-08-28T03:37:23.428Z,7.25
2022-08-28T03:39:50.393Z,6.38
2022-08-28T03:42:17.360Z,5.05
2022-08-28T03:44:44.227Z,4.93
2022-08-28T03:47:12.346Z,8.57
2022-08-28T03:49:39.868Z,6.57
2022-08-28T03:52:06.721Z,4.97
2022-08-28T03:54:33.924Z,10.40
2022-08-28T03:57:00.712Z,7.68
2022-08-28T03:59:31.783Z,4.40
2022-08-28T04:02:00.511Z,8.93
2022-08-28T04:04:27.810Z,5.20
2022-08-28T04:06:54.679Z,7.35
2022-08-28T04:09:21.507Z,8.50
2022-08-28T04:11:48.801Z,4.72
2022-08-28T04:14:15.578Z,5.97
2022-08-28T04:16:42.564Z,7.13
2022-08-28T04:19:09.489Z,6.60
2022-08-28T04:21:36.271Z,9.88
2022-08-28T04:24:06.741Z,6.45
2022-08-28T04:26:36.753Z,5.63
2022-08-28T04:29:05.089Z,6.80
2022-08-28T04:31:33.200Z,6.25
2022-08-28T04:34:01.771Z,6.47
2022-08-28T04:36:29.235Z,6.22
2022-08-28T04:38:57.552Z,6.35
2022-08-28T04:41:24.341Z,4.80
2022-08-28T04:43:52.840Z,4.63
2022-08-28T04:46:20.158Z,5.32
2022-08-28T04:48:46.984Z,5.05
2022-08-28T04:51:15.161Z,7.28
2022-08-28T04:53:42.962Z,4.43
2022-08-28T04:56:12.936Z,10.05
2022-08-28T04:58:40.644Z,8.32
2022-08-28T05:01:18.817Z,5.72
2022-08-28T05:03:47.938Z,5.57
2022-08-28T05:06:16.497Z,5.22
2022-08-28T05:08:43.817Z,6.28
2022-08-28T05:11:33.348Z,7.30
2022-08-28T05:14:02.586Z,9.00
2022-08-28T05:16:29.477Z,5.20
2022-08-28T05:19:00.409Z,6.72
2022-08-28T05:21:28.280Z,5.32
2022-08-28T05:23:57.441Z,7.53
2022-08-28T05:26:27.240Z,5.35
2022-08-28T05:28:56.579Z,5.03
2022-08-28T05:31:24.585Z,5.13
2022-08-28T05:33:52.663Z,7.30
2022-08-28T05:36:22.097Z,4.68
2022-08-28T05:38:50.681Z,5.88
2022-08-28T05:41:29.960Z,8.55
2022-08-28T05:44:01.701Z,5.45
2022-08-28T05:46:29.423Z,6.75
2022-08-28T05:48:57.708Z,4.10
2022-08-28T05:51:26.653Z,3.90
2022-08-28T05:53:55.322Z,6.78
2022-08-28T05:56:30.954Z,5.22
2022-08-28T05:58:59.994Z,6.45
2022-08-28T06:01:32.740Z,5.97
2022-08-28T06:04:07.377Z,6.05
2022-08-28T06:06:35.854Z,5.80
2022-08-28T06:09:15.618Z,5.15
2022-08-28T06:11:46.105Z,4.85
2022-08-28T06:14:14.818Z,6.38
2022-08-28T06:16:45.590Z,5.68
2022-08-28T06:19:13.553Z,3.95
2022-08-28T06:21:41.542Z,7.93
2022-08-28T06:24:10.313Z,6.43
2022-08-28T06:26:37.463Z,5.97
2022-08-28T06:29:07.924Z,6.80
2022-08-28T06:31:34.898Z,5.60
2022-08-28T06:34:02.173Z,6.55
2022-08-28T06:36:32.261Z,5.10
2022-08-28T06:39:00.115Z,7.53
2022-08-28T06:41:27.846Z,6.32
2022-08-28T06:43:55.442Z,5.80
2022-08-28T06:46:22.869Z,5.15
2022-08-28T06:48:49.850Z,5.43
2022-08-28T06:51:16.765Z,6.22
2022-08-28T06:53:46.567Z,5.13
2022-08-28T06:56:25.608Z,7.50
2022-08-28T06:58:56.236Z,10.27
2022-08-28T07:01:30.142Z,4.78
2022-08-28T07:04:06.331Z,7.13
2022-08-28T07:06:41.733Z,4.50
2022-08-28T07:09:11.265Z,10.05
2022-08-28T07:11:39.197Z,5.88
2022-08-28T07:14:06.906Z,5.43
2022-08-28T07:16:38.315Z,11.75
2022-08-28T07:19:06.962Z,9.80
2022-08-28T07:21:38.199Z,5.65
2022-08-28T07:24:06.945Z,5.00
2022-08-28T07:26:35.767Z,7.47
2022-08-28T07:29:10.045Z,4.75
2022-08-28T07:31:40.775Z,6.13
2022-08-28T07:34:09.673Z,5.82
2022-08-28T07:36:36.842Z,4.68
2022-08-28T07:39:05.260Z,4.82
2022-08-28T07:41:34.375Z,6.15
2022-08-28T07:44:19.497Z,7.18
2022-08-28T07:46:46.458Z,7.78
2022-08-28T07:49:17.120Z,4.05
2022-08-28T07:51:44.096Z,3.75
2022-08-28T07:54:15.613Z,8.23
2022-08-28T07:59:12.393Z,7.55
2022-08-28T08:01:46.596Z,8.27
2022-08-28T08:04:16.018Z,5.07
2022-08-28T08:06:44.155Z,5.95
2022-08-28T08:09:14.517Z,5.82
2022-08-28T08:11:42.507Z,6.03
2022-08-28T08:14:09.960Z,6.53
2022-08-28T08:16:40.407Z,6.03
2022-08-28T08:19:13.942Z,4.60
2022-08-28T08:21:46.016Z,7.40
2022-08-28T08:24:19.651Z,6.47
2022-08-28T08:26:58.796Z,7.75
2022-08-28T08:29:33.041Z,5.25
2022-08-28T08:32:05.799Z,5.75
2022-08-28T08:34:38.750Z,6.75
2022-08-28T08:37:05.993Z,7.88
2022-08-28T08:39:34.881Z,6.03
2022-08-28T08:42:05.060Z,8.48
2022-08-28T08:44:40.753Z,7.40
2022-08-28T08:47:42.086Z,7.47
2022-08-28T08:50:20.551Z,7.82
2022-08-28T08:52:53.273Z,6.13
2022-08-28T08:55:25.140Z,10.57
2022-08-28T08:58:13.917Z,7.43
2022-08-28T09:00:53.829Z,6.40
2022-08-28T09:03:44.421Z,7.70
2022-08-28T09:06:39.169Z,7.03
2022-08-28T09:09:14.661Z,5.75
2022-08-28T09:12:03.166Z,7.05
2022-08-28T09:15:05.133Z,5.53
2022-08-28T09:17:48.135Z,6.72
2022-08-28T09:20:32.531Z,6.07
2022-08-28T09:23:00.266Z,5.53
2022-08-28T09:25:57.005Z,5.60
2022-08-28T09:28:39.335Z,6.03
2022-08-28T09:31:13.308Z,6.13
2022-08-28T09:33:48.568Z,5.68
2022-08-28T09:36:33.897Z,5.18
2022-08-28T09:39:20.123Z,5.35
2022-08-28T09:42:17.569Z,6.00
2022-08-28T09:45:09.206Z,5.68
2022-08-28T09:47:48.684Z,8.88
2022-08-28T09:50:24.438Z,7.82
2022-08-28T09:52:54.136Z,7.32
2022-08-28T09:55:38.570Z,4.50
2022-08-28T09:58:06.610Z,9.57
2022-08-28T10:00:38.082Z,7.57
2022-08-28T10:03:18.073Z,7.85
2022-08-28T10:06:09.385Z,6.63
2022-08-28T10:09:03.373Z,6.10
2022-08-28T10:11:44.426Z,6.50
2022-08-28T10:14:44.603Z,6.70
2022-08-28T10:17:14.562Z,8.43
2022-08-28T10:20:01.259Z,7.97
2022-08-28T10:22:49.436Z,14.40
2022-08-28T10:25:37.640Z,8.13
2022-08-28T10:28:36.944Z,6.95
2022-08-28T10:31:19.255Z,7.88
2022-08-28T10:34:07.042Z,7.63
2022-08-28T10:36:35.767Z,7.57
2022-08-28T10:39:36.138Z,5.82
2022-08-28T10:42:05.941Z,13.65
2022-08-28T10:45:01.230Z,15.48
2022-08-28T10:47:29.577Z,8.35
2022-08-28T10:50:01.939Z,6.85
2022-08-28T10:52:35.986Z,7.03
2022-08-28T10:55:14.003Z,7.05
2022-08-28T10:58:00.700Z,9.02
2022-08-28T11:00:28.904Z,7.30
2022-08-28T11:02:59.528Z,7.47
2022-08-28T11:05:31.576Z,6.35
2022-08-28T11:08:06.771Z,7.00
2022-08-28T11:10:36.578Z,8.07
2022-08-28T11:13:05.521Z,8.95
2022-08-28T11:15:36.996Z,8.93
2022-08-28T11:18:16.688Z,6.80
2022-08-28T11:21:08.881Z,9.52
2022-08-28T11:24:10.693Z,7.40
2022-08-28T11:27:09.482Z,8.70
2022-08-28T11:30:15.240Z,7.82
2022-08-28T11:32:51.004Z,8.32
2022-08-28T11:35:20.654Z,8.38
2022-08-28T11:37:53.402Z,8.23
2022-08-28T11:40:32.353Z,8.10
2022-08-28T11:43:15.888Z,6.60
2022-08-28T11:45:45.709Z,10.57
2022-08-28T11:48:28.386Z,9.82
2022-08-28T11:51:17.801Z,7.05
2022-08-28T11:54:04.373Z,7.78
2022-08-28T11:56:49.752Z,6.05
2022-08-28T11:59:36.289Z,5.80
2022-08-28T12:02:35.567Z,7.80
2022-08-28T12:05:05.357Z,7.93
2022-08-28T12:07:40.751Z,5.97
2022-08-28T12:10:22.752Z,5.95
2022-08-28T12:12:59.351Z,6.32
2022-08-28T12:15:29.719Z,8.27
2022-08-28T12:17:57.925Z,7.15
2022-08-28T12:20:30.693Z,7.55
2022-08-28T12:23:01.272Z,6.63
2022-08-28T12:25:42.206Z,7.55
2022-08-28T12:28:44.035Z,8.20
2022-08-28T12:32:01.842Z,7.05
2022-08-28T12:34:59.493Z,6.32
2022-08-28T12:37:51.382Z,7.47
2022-08-28T12:40:26.953Z,7.43
2022-08-28T12:43:09.527Z,8.50
2022-08-28T12:45:51.087Z,8.30
2022-08-28T12:48:21.847Z,5.82
2022-08-28T12:50:58.313Z,6.80
2022-08-28T12:53:26.839Z,8.50
2022-08-28T12:55:55.652Z,7.15
2022-08-28T12:58:34.444Z,7.22
2022-08-28T13:01:09.315Z,5.90
2022-08-28T13:03:46.947Z,7.35
2022-08-28T13:06:14.193Z,8.43
2022-08-28T13:08:41.321Z,6.07
2022-08-28T13:11:09.094Z,6.53
2022-08-28T13:13:45.086Z,7.82
2022-08-28T13:16:13.638Z,5.70
2022-08-28T13:18:43.306Z,6.65
2022-08-28T13:21:32.721Z,6.15
2022-08-28T13:24:21.391Z,6.07
2022-08-28T13:27:07.330Z,8.13
2022-08-28T13:29:35.317Z,5.82
2022-08-28T13:32:14.514Z,7.00
2022-08-28T13:34:48.155Z,5.75
2022-08-28T13:37:43.827Z,6.57
2022-08-28T13:40:30.276Z,6.40
2022-08-28T13:43:11.301Z,6.50
2022-08-28T13:45:43.029Z,5.25
2022-08-28T13:48:12.051Z,5.10
2022-08-28T13:50:42.058Z,8.45
2022-08-28T13:53:13.477Z,5.18
2022-08-28T13:55:40.452Z,4.10
2022-08-28T13:58:07.525Z,7.85
2022-08-28T14:00:38.347Z,5.05
2022-08-28T14:03:23.571Z,5.57
2022-08-28T14:05:50.382Z,6.32
2022-08-28T14:08:17.202Z,4.95
2022-08-28T14:10:43.961Z,5.40
2022-08-28T14:13:10.812Z,6.93
2022-08-28T14:15:38.366Z,3.40
2022-08-28T14:18:05.559Z,4.85
2022-08-28T14:20:32.818Z,4.60
2022-08-28T14:22:59.571Z,5.05
2022-08-28T14:25:26.491Z,4.07
2022-08-28T14:27:53.822Z,3.75
2022-08-28T14:30:20.692Z,5.22
2022-08-28T14:32:47.484Z,5.68
2022-08-28T14:35:14.344Z,6.53
2022-08-28T14:37:41.876Z,5.88
2022-08-28T14:40:09.960Z,6.28
2022-08-28T14:42:36.862Z,4.03
2022-08-28T14:45:04.363Z,4.45
2022-08-28T14:47:31.152Z,6.43
2022-08-28T14:49:58.032Z,4.70
2022-08-28T14:52:24.904Z,4.28
2022-08-28T14:54:51.737Z,4.90
2022-08-28T14:57:18.689Z,4.50
2022-08-28T14:59:45.515Z,3.72
2022-08-28T15:02:13.679Z,4.22
2022-08-28T15:04:40.622Z,5.10
2022-08-28T15:07:10.992Z,5.68
2022-08-28T15:09:40.396Z,5.55
2022-08-28T15:12:07.462Z,7.43
2022-08-28T15:14:35.588Z,4.97
2022-08-28T15:17:02.459Z,7.30
2022-08-28T15:19:30.125Z,6.82
2022-08-28T15:21:58.647Z,3.67
2022-08-28T15:24:28.608Z,4.93
2022-08-28T15:26:56.879Z,4.93
2022-08-28T15:29:23.984Z,4.63
2022-08-28T15:31:52.763Z,3.95
2022-08-28T15:34:22.802Z,4.53
2022-08-28T15:36:55.118Z,3.78
2022-08-28T15:39:43.171Z,4.90
2022-08-28T15:42:11.358Z,7.85
2022-08-28T15:44:38.996Z,4.53
2022-08-28T15:47:06.491Z,4.43
2022-08-28T15:49:37.476Z,7.32
2022-08-28T15:52:10.841Z,5.80
2022-08-28T15:54:37.840Z,5.13
2022-08-28T15:57:05.095Z,5.07
2022-08-28T15:59:49.070Z,5.93
2022-08-28T16:02:23.056Z,5.55
2022-08-28T16:04:50.715Z,6.78
2022-08-28T16:07:18.647Z,7.80
2022-08-28T16:09:45.515Z,5.68
2022-08-28T16:12:12.457Z,5.32
2022-08-28T16:14:39.393Z,5.80
2022-08-28T16:17:11.028Z,7.85
2022-08-28T16:19:42.147Z,6.07
2022-08-28T16:22:15.868Z,5.78
2022-08-28T16:24:43.527Z,7.93
2022-08-28T16:27:14.676Z,5.78
2022-08-28T16:29:42.894Z,6.30
2022-08-28T16:32:11.678Z,5.13
2022-08-28T16:34:39.840Z,4.95
2022-08-28T16:37:07.919Z,7.72
2022-08-28T16:39:35.729Z,7.95
2022-08-28T16:42:02.734Z,5.30
2022-08-28T16:44:30.053Z,5.65
2022-08-28T16:46:56.914Z,6.03
2022-08-28T16:49:24.356Z,7.40
2022-08-28T16:51:51.519Z,7.47
2022-08-28T16:54:19.263Z,8.35
2022-08-28T16:56:46.461Z,5.70
2022-08-28T16:59:16.505Z,7.93
2022-08-28T17:01:43.530Z,7.35
2022-08-28T17:04:10.536Z,7.45
2022-08-28T17:06:37.354Z,5.35
2022-08-28T17:09:04.404Z,7.22
2022-08-28T17:11:32.049Z,6.60
2022-08-28T17:14:00.401Z,4.97
2022-08-28T17:16:31.389Z,8.85
2022-08-28T17:18:59.368Z,6.15
2022-08-28T17:21:44.934Z,9.85
2022-08-28T17:24:14.818Z,11.27
2022-08-28T17:26:43.658Z,12.30
2022-08-28T17:29:11.396Z,12.98
2022-08-28T17:31:38.625Z,10.98
2022-08-28T17:34:07.361Z,6.85
2022-08-28T17:36:37.062Z,5.55
2022-08-28T17:39:08.072Z,7.35
2022-08-28T17:41:35.647Z,6.70
2022-08-28T17:44:03.550Z,7.43
2022-08-28T17:46:34.078Z,7.50
2022-08-28T17:49:07.969Z,8.90
2022-08-28T17:51:42.906Z,8.20
2022-08-28T17:54:21.413Z,7.72
2022-08-28T17:56:49.499Z,6.57
2022-08-28T17:59:16.287Z,8.30
2022-08-28T18:01:44.915Z,9.88
2022-08-28T18:04:13.293Z,6.70
2022-08-28T18:06:40.363Z,7.90
2022-08-28T18:09:09.293Z,7.50
2022-08-28T18:11:36.305Z,11.18
2022-08-28T18:14:03.385Z,7.97
2022-08-28T18:16:32.839Z,13.90
2022-08-28T18:19:00.847Z,16.40
2022-08-28T18:21:28.810Z,10.93
2022-08-28T18:23:55.702Z,7.47
2022-08-28T18:26:22.498Z,8.82
2022-08-28T18:28:50.209Z,7.75
2022-08-28T18:31:17.885Z,7.07
2022-08-28T18:33:44.936Z,6.85
2022-08-28T18:36:13.810Z,8.32
2022-08-28T18:38:42.059Z,7.82
2022-08-28T18:41:10.125Z,8.52
2022-08-28T18:43:37.325Z,7.90
2022-08-28T18:46:06.013Z,6.75
2022-08-28T18:48:33.161Z,6.72
2022-08-28T18:51:00.026Z,6.43
2022-08-28T18:53:27.932Z,8.23
2022-08-28T18:55:55.944Z,10.45
2022-08-28T18:58:23.775Z,11.05
2022-08-28T19:00:51.122Z,10.48
2022-08-28T19:03:17.942Z,8.65
2022-08-28T19:05:44.873Z,8.80
2022-08-28T19:08:12.401Z,7.75
2022-08-28T19:10:40.115Z,10.20
2022-08-28T19:13:07.621Z,7.05
2022-08-28T19:15:35.703Z,8.52
2022-08-28T19:18:02.846Z,7.03
2022-08-28T19:20:30.427Z,9.15
2022-08-28T19:22:58.092Z,7.68
2022-08-28T19:25:28.789Z,8.43
2022-08-28T19:28:01.464Z,9.80
2022-08-28T19:30:33.574Z,7.38
2022-08-28T19:33:02.439Z,7.88
2022-08-28T19:35:29.423Z,7.30
2022-08-28T19:37:56.496Z,11.80
2022-08-28T19:40:23.578Z,10.15
2022-08-28T19:42:50.497Z,8.90
2022-08-28T19:45:18.429Z,11.90
2022-08-28T19:47:46.828Z,7.93
2022-08-28T19:50:14.870Z,10.48
2022-08-28T19:52:43.592Z,7.63
2022-08-28T19:55:17.388Z,7.72
2022-08-28T19:57:44.664Z,8.80
2022-08-28T20:00:14.869Z,9.15
2022-08-28T20:02:41.685Z,7.78
2022-08-28T20:05:09.076Z,7.75
2022-08-28T20:07:35.906Z,6.60
2022-08-28T20:10:02.902Z,11.18
2022-08-28T20:12:29.964Z,7.03
2022-08-28T20:15:01.284Z,8.52
2022-08-28T20:17:30.046Z,9.50
2022-08-28T20:20:02.460Z,8.43
2022-08-28T20:22:31.892Z,7.82
2022-08-28T20:24:59.482Z,10.68
2022-08-28T20:27:26.659Z,6.95
2022-08-28T20:29:53.515Z,8.07
2022-08-28T20:32:20.655Z,7.50
2022-08-28T20:34:47.533Z,6.20
2022-08-28T20:37:16.573Z,7.53
2022-08-28T20:39:43.564Z,8.48
2022-08-28T20:42:11.785Z,6.40
2022-08-28T20:44:38.568Z,7.90
2022-08-28T20:47:05.576Z,7.90
2022-08-28T20:49:32.511Z,9.18
2022-08-28T20:52:05.827Z,7.38
2022-08-28T20:54:36.954Z,7.50
2022-08-28T20:57:07.810Z,9.98
2022-08-28T20:59:40.432Z,7.35
2022-08-28T21:02:13.679Z,7.70
2022-08-28T21:04:41.506Z,6.80
2022-08-28T21:07:09.280Z,6.28
2022-08-28T21:09:58.110Z,7.70
2022-08-28T21:12:23.858Z,7.57
2022-08-28T21:14:52.807Z,7.18
2022-08-28T21:17:22.688Z,6.38
2022-08-28T21:20:01.234Z,8.02
2022-08-28T21:22:31.314Z,6.25
2022-08-28T21:24:58.583Z,9.40
2022-08-28T21:27:25.425Z,6.53
2022-08-28T21:29:55.508Z,8.15
2022-08-28T21:32:22.266Z,8.07
2022-08-28T21:34:49.026Z,9.98
2022-08-28T21:37:16.406Z,7.45
2022-08-28T21:39:44.478Z,10.20
2022-08-28T21:42:14.667Z,7.85
2022-08-28T21:44:41.426Z,8.20
2022-08-28T21:47:17.280Z,7.05
2022-08-28T21:49:49.012Z,11.10
2022-08-28T21:52:16.574Z,9.35
2022-08-28T21:54:43.396Z,9.02
2022-08-28T21:57:10.230Z,8.23
2022-08-28T21:59:37.783Z,9.50
2022-08-28T22:02:05.768Z,9.02
2022-08-28T22:04:32.845Z,9.65
2022-08-28T22:06:59.607Z,15.20
2022-08-28T22:09:26.548Z,11.73
2022-08-28T22:11:53.989Z,9.52
2022-08-28T22:14:21.033Z,11.32
2022-08-28T22:16:47.967Z,12.10
2022-08-28T22:19:14.794Z,10.65
2022-08-28T22:22:00.305Z,12.30
2022-08-28T22:24:27.194Z,10.57
2022-08-28T22:26:57.526Z,11.02
2022-08-28T22:29:24.826Z,12.60
2022-08-28T22:31:52.692Z,11.98
2022-08-28T22:34:19.713Z,13.43
2022-08-28T22:36:46.587Z,9.65
2022-08-28T22:39:13.452Z,10.38
2022-08-28T22:41:40.435Z,9.18
2022-08-28T22:44:07.664Z,11.80
2022-08-28T22:46:34.621Z,10.43
2022-08-28T22:49:01.526Z,11.27
2022-08-28T22:51:28.349Z,9.70
2022-08-28T22:53:55.928Z,12.23
2022-08-28T22:56:22.740Z,10.88
2022-08-28T22:58:49.523Z,10.27
2022-08-28T23:01:21.627Z,12.88
2022-08-28T23:03:48.795Z,9.35
2022-08-28T23:06:15.681Z,12.13
2022-08-28T23:08:43.004Z,12.15
2022-08-28T23:11:11.156Z,9.73
2022-08-28T23:13:38.398Z,10.85
2022-08-28T23:16:06.646Z,9.35
2022-08-28T23:18:51.874Z,9.65
2022-08-28T23:21:23.751Z,11.63
2022-08-28T23:23:53.426Z,9.65
2022-08-28T23:26:20.810Z,9.35
2022-08-28T23:28:47.883Z,10.27
2022-08-28T23:31:14.722Z,11.02
2022-08-28T23:33:41.797Z,9.90
2022-08-28T23:36:09.490Z,11.60
2022-08-28T23:38:42.926Z,11.55
2022-08-28T23:41:11.333Z,12.77
2022-08-28T23:43:38.401Z,9.27
2022-08-28T23:46:06.108Z,10.27
2022-08-28T23:48:33.630Z,10.40
2022-08-28T23:51:02.703Z,7.70
2022-08-28T23:53:30.715Z,8.95
2022-08-28T23:55:59.535Z,8.95
2022-08-28T23:58:28.468Z,8.85
